sensor_id;sensor_type;location;lat;lon;timestamp;pressure;altitude;pressure_sealevel;temperature;humidity
30021;BME280;16861;52.294;7.760;2023-04-25T00:00:25;99012.28;;;9.25;74.50
30021;BME280;16861;52.294;7.760;2023-04-25T00:02:52;99010.38;;;9.28;74.52
30021;BME280;16861;52.294;7.760;2023-04-25T00:05:18;99012.91;;;9.29;74.66
30021;BME280;16861;52.294;7.760;2023-04-25T00:07:46;99012.91;;;9.29;74.63
30021;BME280;16861;52.294;7.760;2023-04-25T00:10:12;99018.06;;;9.31;74.60
30021;BME280;16861;52.294;7.760;2023-04-25T00:12:39;99011.88;;;9.32;74.97
30021;BME280;16861;52.294;7.760;2023-04-25T00:15:07;99014.31;;;9.35;75.21
30021;BME280;16861;52.294;7.760;2023-04-25T00:17:33;99021.13;;;9.37;75.03
30021;BME280;16861;52.294;7.760;2023-04-25T00:20:01;99015.78;;;9.39;75.25
30021;BME280;16861;52.294;7.760;2023-04-25T00:22:31;99025.25;;;9.42;75.10
30021;BME280;16861;52.294;7.760;2023-04-25T00:24:57;99025.03;;;9.45;74.93
30021;BME280;16861;52.294;7.760;2023-04-25T00:27:26;99029.38;;;9.46;75.01
30021;BME280;16861;52.294;7.760;2023-04-25T00:29:53;99032.72;;;9.48;74.91
30021;BME280;16861;52.294;7.760;2023-04-25T00:32:19;99030.00;;;9.49;75.17
30021;BME280;16861;52.294;7.760;2023-04-25T00:34:46;99027.28;;;9.51;75.10
30021;BME280;16861;52.294;7.760;2023-04-25T00:37:12;99034.13;;;9.54;75.20
30021;BME280;16861;52.294;7.760;2023-04-25T00:39:39;99033.19;;;9.55;74.92
30021;BME280;16861;52.294;7.760;2023-04-25T00:42:06;99039.28;;;9.55;74.91
30021;BME280;16861;52.294;7.760;2023-04-25T00:44:35;99044.44;;;9.57;74.81
30021;BME280;16861;52.294;7.760;2023-04-25T00:47:02;99045.28;;;9.57;74.97
30021;BME280;16861;52.294;7.760;2023-04-25T00:49:29;99049.59;;;9.58;75.04
30021;BME280;16861;52.294;7.760;2023-04-25T00:51:56;99046.84;;;9.60;74.88
30021;BME280;16861;52.294;7.760;2023-04-25T00:54:22;99053.81;;;9.61;74.87
30021;BME280;16861;52.294;7.760;2023-04-25T00:56:49;99042.34;;;9.62;74.97
30021;BME280;16861;52.294;7.760;2023-04-25T00:59:16;99050.97;;;9.64;74.71
30021;BME280;16861;52.294;7.760;2023-04-25T01:01:44;99047.44;;;9.65;74.77
30021;BME280;16861;52.294;7.760;2023-04-25T01:04:11;99048.25;;;9.65;74.68
30021;BME280;16861;52.294;7.760;2023-04-25T01:06:40;99055.19;;;9.67;74.76
30021;BME280;16861;52.294;7.760;2023-04-25T01:09:07;99047.31;;;9.67;74.56
30021;BME280;16861;52.294;7.760;2023-04-25T01:11:33;99049.84;;;9.68;73.98
30021;BME280;16861;52.294;7.760;2023-04-25T01:14:00;99049.84;;;9.68;74.50
30021;BME280;16861;52.294;7.760;2023-04-25T01:16:28;99055.09;;;9.68;74.24
30021;BME280;16861;52.294;7.760;2023-04-25T01:18:55;99056.91;;;9.68;74.41
30021;BME280;16861;52.294;7.760;2023-04-25T01:21:22;99057.81;;;9.67;74.45
30021;BME280;16861;52.294;7.760;2023-04-25T01:23:49;99063.06;;;9.67;74.76
30021;BME280;16861;52.294;7.760;2023-04-25T01:26:16;99068.31;;;9.67;74.56
30021;BME280;16861;52.294;7.760;2023-04-25T01:28:43;99068.31;;;9.67;74.25
30021;BME280;16861;52.294;7.760;2023-04-25T01:31:12;99071.91;;;9.65;73.61
30021;BME280;16861;52.294;7.760;2023-04-25T01:33:39;99066.00;;;9.62;74.07
30021;BME280;16861;52.294;7.760;2023-04-25T01:36:06;99075.75;;;9.60;74.09
30021;BME280;16861;52.294;7.760;2023-04-25T01:38:32;99069.78;;;9.58;73.93
30021;BME280;16861;52.294;7.760;2023-04-25T01:40:59;99083.00;;;9.56;73.92
30021;BME280;16861;52.294;7.760;2023-04-25T01:43:26;99080.47;;;9.55;73.82
30021;BME280;16861;52.294;7.760;2023-04-25T01:45:53;99079.66;;;9.54;74.00
30021;BME280;16861;52.294;7.760;2023-04-25T01:48:19;99083.19;;;9.53;73.89
30021;BME280;16861;52.294;7.760;2023-04-25T01:50:46;99086.75;;;9.52;73.67
30021;BME280;16861;52.294;7.760;2023-04-25T01:53:13;99090.34;;;9.51;73.79
30021;BME280;16861;52.294;7.760;2023-04-25T01:55:41;99090.34;;;9.51;73.67
30021;BME280;16861;52.294;7.760;2023-04-25T01:58:08;99090.34;;;9.51;73.64
30021;BME280;16861;52.294;7.760;2023-04-25T02:00:36;99102.53;;;9.52;73.48
30021;BME280;16861;52.294;7.760;2023-04-25T02:03:05;99100.94;;;9.49;73.58
30021;BME280;16861;52.294;7.760;2023-04-25T02:05:39;99095.06;;;9.46;72.12
30021;BME280;16861;52.294;7.760;2023-04-25T02:08:06;99102.84;;;9.47;72.97
30021;BME280;16861;52.294;7.760;2023-04-25T02:10:33;99102.06;;;9.45;73.27
30021;BME280;16861;52.294;7.760;2023-04-25T02:13:00;99098.72;;;9.43;72.94
30021;BME280;16861;52.294;7.760;2023-04-25T02:15:27;99108.56;;;9.39;73.13
30021;BME280;16861;52.294;7.760;2023-04-25T02:17:53;99099.94;;;9.37;73.06
30021;BME280;16861;52.294;7.760;2023-04-25T02:20:22;99105.38;;;9.34;72.99
30021;BME280;16861;52.294;7.760;2023-04-25T02:22:49;99097.59;;;9.33;73.21
30021;BME280;16861;52.294;7.760;2023-04-25T02:25:17;99103.88;;;9.30;73.14
30021;BME280;16861;52.294;7.760;2023-04-25T02:27:43;99109.22;;;9.29;73.56
30021;BME280;16861;52.294;7.760;2023-04-25T02:30:11;99110.16;;;9.28;73.23
30021;BME280;16861;52.294;7.760;2023-04-25T02:32:38;99107.72;;;9.24;73.14
30021;BME280;16861;52.294;7.760;2023-04-25T02:35:06;99109.63;;;9.22;73.23
30021;BME280;16861;52.294;7.760;2023-04-25T02:37:34;99108.84;;;9.20;73.48
30021;BME280;16861;52.294;7.760;2023-04-25T02:40:01;99115.06;;;9.19;73.69
30021;BME280;16861;52.294;7.760;2023-04-25T02:42:29;99119.56;;;9.17;73.93
30021;BME280;16861;52.294;7.760;2023-04-25T02:44:56;99112.59;;;9.16;73.79
30021;BME280;16861;52.294;7.760;2023-04-25T02:47:23;99117.84;;;9.16;73.71
30021;BME280;16861;52.294;7.760;2023-04-25T02:49:50;99115.34;;;9.15;73.91
30021;BME280;16861;52.294;7.760;2023-04-25T02:52:16;99122.38;;;9.14;73.91
30021;BME280;16861;52.294;7.760;2023-04-25T02:54:43;99131.19;;;9.13;73.63
30021;BME280;16861;52.294;7.760;2023-04-25T02:57:09;99121.59;;;9.12;73.93
30021;BME280;16861;52.294;7.760;2023-04-25T02:59:36;99124.34;;;9.10;73.94
30021;BME280;16861;52.294;7.760;2023-04-25T03:02:02;99121.81;;;9.09;74.01
30021;BME280;16861;52.294;7.760;2023-04-25T03:04:29;99124.44;;;9.09;74.00
30021;BME280;16861;52.294;7.760;2023-04-25T03:06:56;99122.75;;;9.08;73.81
30021;BME280;16861;52.294;7.760;2023-04-25T03:09:22;99130.63;;;9.08;73.92
30021;BME280;16861;52.294;7.760;2023-04-25T03:11:49;99136.72;;;9.08;73.96
30021;BME280;16861;52.294;7.760;2023-04-25T03:14:16;99134.19;;;9.07;73.80
30021;BME280;16861;52.294;7.760;2023-04-25T03:16:42;99136.06;;;9.05;73.83
30021;BME280;16861;52.294;7.760;2023-04-25T03:19:09;99140.47;;;9.04;73.72
30021;BME280;16861;52.294;7.760;2023-04-25T03:21:36;99144.13;;;9.02;73.56
30021;BME280;16861;52.294;7.760;2023-04-25T03:24:04;99148.50;;;9.01;73.66
30021;BME280;16861;52.294;7.760;2023-04-25T03:26:30;99146.00;;;8.99;73.90
30021;BME280;16861;52.294;7.760;2023-04-25T03:28:57;99153.13;;;8.97;73.73
30021;BME280;16861;52.294;7.760;2023-04-25T03:31:25;99148.03;;;8.94;73.62
30021;BME280;16861;52.294;7.760;2023-04-25T03:33:51;99155.09;;;8.94;73.51
30021;BME280;16861;52.294;7.760;2023-04-25T13:26:36;99627.41;;;17.52;59.49
30021;BME280;16861;52.294;7.760;2023-04-25T13:29:02;99629.72;;;18.06;58.92
30021;BME280;16861;52.294;7.760;2023-04-25T13:31:30;99624.41;;;18.66;57.88
30021;BME280;16861;52.294;7.760;2023-04-25T13:33:57;99620.31;;;19.29;56.75
30021;BME280;16861;52.294;7.760;2023-04-25T13:39:16;99618.00;;;20.53;54.86
30021;BME280;16861;52.294;7.760;2023-04-25T13:41:42;99625.53;;;21.03;53.46
30021;BME280;16861;52.294;7.760;2023-04-25T13:44:09;99620.25;;;21.54;53.22
30021;BME280;16861;52.294;7.760;2023-04-25T13:46:37;99623.03;;;21.96;50.73
30021;BME280;16861;52.294;7.760;2023-04-25T13:49:12;99625.56;;;22.14;47.49
30021;BME280;16861;52.294;7.760;2023-04-25T13:51:40;99656.69;;;21.98;44.89
30021;BME280;16861;52.294;7.760;2023-04-25T13:54:07;99649.34;;;21.57;44.07
30021;BME280;16861;52.294;7.760;2023-04-25T13:56:34;99646.25;;;21.01;43.92
30021;BME280;16861;52.294;7.760;2023-04-25T13:59:00;99655.16;;;20.38;44.22
30021;BME280;16861;52.294;7.760;2023-04-25T14:01:27;99659.38;;;19.76;44.77
30021;BME280;16861;52.294;7.760;2023-04-25T14:03:54;99661.50;;;19.17;45.41
30021;BME280;16861;52.294;7.760;2023-04-25T14:06:21;99663.97;;;18.60;45.96
30021;BME280;16861;52.294;7.760;2023-04-25T14:08:51;99661.31;;;18.11;46.35
30021;BME280;16861;52.294;7.760;2023-04-25T14:11:18;99661.75;;;17.65;46.51
30021;BME280;16861;52.294;7.760;2023-04-25T14:13:55;99652.94;;;17.24;47.47
30021;BME280;16861;52.294;7.760;2023-04-25T14:16:21;99658.09;;;16.94;48.42
30021;BME280;16861;52.294;7.760;2023-04-25T14:18:49;99659.53;;;16.77;50.09
30021;BME280;16861;52.294;7.760;2023-04-25T14:21:15;99644.19;;;16.80;51.63
30021;BME280;16861;52.294;7.760;2023-04-25T14:23:42;99649.78;;;17.09;54.54
30021;BME280;16861;52.294;7.760;2023-04-25T14:26:09;99630.06;;;17.52;54.49
30021;BME280;16861;52.294;7.760;2023-04-25T14:28:38;99631.56;;;18.06;54.59
30021;BME280;16861;52.294;7.760;2023-04-25T14:31:05;99635.47;;;18.61;53.03
30021;BME280;16861;52.294;7.760;2023-04-25T14:33:32;99630.38;;;19.07;51.75
30021;BME280;16861;52.294;7.760;2023-04-25T14:35:58;99630.19;;;19.47;50.42
30021;BME280;16861;52.294;7.760;2023-04-25T14:38:25;99623.50;;;19.79;49.48
30021;BME280;16861;52.294;7.760;2023-04-25T14:40:53;99631.34;;;20.09;48.81
30021;BME280;16861;52.294;7.760;2023-04-25T14:43:20;99629.97;;;20.41;48.91
30021;BME280;16861;52.294;7.760;2023-04-25T14:45:46;99639.84;;;20.67;47.10
30021;BME280;16861;52.294;7.760;2023-04-25T14:48:13;99640.41;;;20.79;45.76
30021;BME280;16861;52.294;7.760;2023-04-25T14:50:40;99640.06;;;20.74;44.83
30021;BME280;16861;52.294;7.760;2023-04-25T14:53:06;99651.31;;;20.59;43.94
30021;BME280;16861;52.294;7.760;2023-04-25T14:55:33;99639.28;;;20.37;44.13
30021;BME280;16861;52.294;7.760;2023-04-25T14:57:59;99648.44;;;20.16;44.52
30021;BME280;16861;52.294;7.760;2023-04-25T15:00:27;99634.47;;;20.04;45.55
30021;BME280;16861;52.294;7.760;2023-04-25T15:02:53;99637.38;;;20.11;46.24
30021;BME280;16861;52.294;7.760;2023-04-25T15:05:20;99632.72;;;20.31;46.03
30021;BME280;16861;52.294;7.760;2023-04-25T15:07:47;99646.09;;;20.57;46.67
30021;BME280;16861;52.294;7.760;2023-04-25T15:10:14;99643.19;;;20.87;46.93
30021;BME280;16861;52.294;7.760;2023-04-25T15:12:42;99653.22;;;21.20;46.43
30021;BME280;16861;52.294;7.760;2023-04-25T15:15:12;99645.84;;;21.57;46.12
30021;BME280;16861;52.294;7.760;2023-04-25T15:17:50;99650.50;;;21.98;45.34
30021;BME280;16861;52.294;7.760;2023-04-25T15:20:17;99655.06;;;22.22;43.46
30021;BME280;16861;52.294;7.760;2023-04-25T15:22:44;99660.59;;;22.21;41.64
30021;BME280;16861;52.294;7.760;2023-04-25T15:25:15;99656.16;;;21.86;39.61
30021;BME280;16861;52.294;7.760;2023-04-25T15:27:45;99660.44;;;21.28;38.76
30021;BME280;16861;52.294;7.760;2023-04-25T15:30:15;99682.41;;;20.60;39.08
30021;BME280;16861;52.294;7.760;2023-04-25T15:32:43;99668.00;;;19.88;39.54
30021;BME280;16861;52.294;7.760;2023-04-25T15:35:10;99676.91;;;19.23;40.62
30021;BME280;16861;52.294;7.760;2023-04-25T15:37:37;99677.72;;;18.66;41.28
30021;BME280;16861;52.294;7.760;2023-04-25T15:40:06;99684.91;;;18.16;42.00
30021;BME280;16861;52.294;7.760;2023-04-25T15:43:10;99686.47;;;17.77;43.05
30021;BME280;16861;52.294;7.760;2023-04-25T15:45:30;99681.44;;;17.43;43.78
30021;BME280;16861;52.294;7.760;2023-04-25T15:47:57;99685.34;;;17.08;43.72
30021;BME280;16861;52.294;7.760;2023-04-25T15:50:24;99686.50;;;16.72;43.43
30021;BME280;16861;52.294;7.760;2023-04-25T15:52:51;99689.53;;;16.46;44.64
30021;BME280;16861;52.294;7.760;2023-04-25T15:55:18;99682.56;;;16.34;46.04
30021;BME280;16861;52.294;7.760;2023-04-25T15:57:48;99687.81;;;16.45;47.18
30021;BME280;16861;52.294;7.760;2023-04-25T16:00:15;99688.69;;;16.67;48.27
30021;BME280;16861;52.294;7.760;2023-04-25T16:02:44;99690.81;;;16.94;47.40
30021;BME280;16861;52.294;7.760;2023-04-25T16:05:11;99694.34;;;17.16;46.70
30021;BME280;16861;52.294;7.760;2023-04-25T16:07:41;99686.72;;;17.33;45.69
30021;BME280;16861;52.294;7.760;2023-04-25T16:10:08;99695.13;;;17.38;45.11
30021;BME280;16861;52.294;7.760;2023-04-25T16:12:39;99695.81;;;17.30;44.36
30021;BME280;16861;52.294;7.760;2023-04-25T16:15:06;99704.97;;;17.16;44.17
30021;BME280;16861;52.294;7.760;2023-04-25T16:17:33;99698.56;;;16.98;44.76
30021;BME280;16861;52.294;7.760;2023-04-25T16:20:00;99706.75;;;16.85;45.61
30021;BME280;16861;52.294;7.760;2023-04-25T16:22:30;99709.66;;;16.82;45.97
30021;BME280;16861;52.294;7.760;2023-04-25T16:24:57;99711.66;;;16.89;46.12
30021;BME280;16861;52.294;7.760;2023-04-25T16:27:23;99706.28;;;17.01;46.03
30021;BME280;16861;52.294;7.760;2023-04-25T16:29:49;99717.84;;;17.11;45.99
30021;BME280;16861;52.294;7.760;2023-04-25T16:32:22;99720.38;;;17.13;45.28
30021;BME280;16861;52.294;7.760;2023-04-25T16:34:49;99722.09;;;17.02;44.13
30021;BME280;16861;52.294;7.760;2023-04-25T16:37:15;99720.53;;;16.78;43.85
30021;BME280;16861;52.294;7.760;2023-04-25T16:39:42;99730.19;;;16.47;43.16
30021;BME280;16861;52.294;7.760;2023-04-25T16:42:09;99736.84;;;16.08;43.21
30021;BME280;16861;52.294;7.760;2023-04-25T16:44:35;99731.69;;;15.72;43.76
30021;BME280;16861;52.294;7.760;2023-04-25T16:47:02;99732.75;;;15.35;44.75
30021;BME280;16861;52.294;7.760;2023-04-25T16:49:31;99739.78;;;15.01;44.80
30021;BME280;16861;52.294;7.760;2023-04-25T16:51:57;99750.13;;;14.68;45.41
30021;BME280;16861;52.294;7.760;2023-04-25T16:54:24;99758.44;;;14.39;45.77
30021;BME280;16861;52.294;7.760;2023-04-25T16:56:51;99748.47;;;14.05;45.78
30021;BME280;16861;52.294;7.760;2023-04-25T16:59:18;99746.44;;;13.71;45.88
30021;BME280;16861;52.294;7.760;2023-04-25T17:01:45;99748.75;;;13.37;46.62
30021;BME280;16861;52.294;7.760;2023-04-25T17:04:11;99735.88;;;13.06;47.02
30021;BME280;16861;52.294;7.760;2023-04-25T17:06:38;99743.75;;;12.80;47.62
30021;BME280;16861;52.294;7.760;2023-04-25T17:09:05;99735.56;;;12.57;47.94
30021;BME280;16861;52.294;7.760;2023-04-25T17:11:32;99736.75;;;12.38;48.87
30021;BME280;16861;52.294;7.760;2023-04-25T17:13:58;99743.66;;;12.27;49.26
30021;BME280;16861;52.294;7.760;2023-04-25T17:16:36;99741.00;;;12.14;48.75
30021;BME280;16861;52.294;7.760;2023-04-25T17:19:06;99745.50;;;12.11;49.40
30021;BME280;16861;52.294;7.760;2023-04-25T17:21:32;99742.78;;;12.13;50.72
30021;BME280;16861;52.294;7.760;2023-04-25T17:23:59;99751.22;;;12.18;51.00
30021;BME280;16861;52.294;7.760;2023-04-25T17:26:26;99752.63;;;12.24;51.35
30021;BME280;16861;52.294;7.760;2023-04-25T17:28:53;99755.63;;;12.32;51.23
30021;BME280;16861;52.294;7.760;2023-04-25T17:31:20;99755.13;;;12.40;51.50
30021;BME280;16861;52.294;7.760;2023-04-25T17:33:49;99753.78;;;12.47;51.28
30021;BME280;16861;52.294;7.760;2023-04-25T17:36:15;99755.28;;;12.51;51.39
30021;BME280;16861;52.294;7.760;2023-04-25T17:38:42;99758.66;;;12.54;51.26
30021;BME280;16861;52.294;7.760;2023-04-25T17:41:09;99753.59;;;12.50;50.90
30021;BME280;16861;52.294;7.760;2023-04-25T17:43:36;99767.09;;;12.46;50.81
30021;BME280;16861;52.294;7.760;2023-04-25T17:46:02;99767.69;;;12.36;50.70
30021;BME280;16861;52.294;7.760;2023-04-25T17:48:29;99769.13;;;12.28;50.87
30021;BME280;16861;52.294;7.760;2023-04-25T17:50:57;99767.16;;;12.17;50.95
30021;BME280;16861;52.294;7.760;2023-04-25T17:53:24;99772.19;;;12.07;50.91
30021;BME280;16861;52.294;7.760;2023-04-25T17:55:50;99770.94;;;11.98;51.42
30021;BME280;16861;52.294;7.760;2023-04-25T17:58:17;99774.06;;;11.90;51.52
30021;BME280;16861;52.294;7.760;2023-04-25T18:00:43;99772.75;;;11.83;51.76
30021;BME280;16861;52.294;7.760;2023-04-25T18:03:10;99780.28;;;11.75;52.19
30021;BME280;16861;52.294;7.760;2023-04-25T18:05:37;99789.63;;;11.66;52.29
30021;BME280;16861;52.294;7.760;2023-04-25T18:08:04;99787.63;;;11.55;52.48
30021;BME280;16861;52.294;7.760;2023-04-25T18:10:32;99787.50;;;11.42;52.67
30021;BME280;16861;52.294;7.760;2023-04-25T18:12:59;99791.75;;;11.30;52.75
30021;BME280;16861;52.294;7.760;2023-04-25T18:15:26;99801.22;;;11.18;53.18
30021;BME280;16861;52.294;7.760;2023-04-25T18:17:53;99804.56;;;11.05;53.28
30021;BME280;16861;52.294;7.760;2023-04-25T18:20:22;99801.63;;;10.95;53.29
30021;BME280;16861;52.294;7.760;2023-04-25T18:22:49;99807.50;;;10.85;53.60
30021;BME280;16861;52.294;7.760;2023-04-25T18:25:16;99801.91;;;10.75;53.65
30021;BME280;16861;52.294;7.760;2023-04-25T18:27:43;99807.63;;;10.67;54.08
30021;BME280;16861;52.294;7.760;2023-04-25T18:30:11;99810.63;;;10.61;54.42
30021;BME280;16861;52.294;7.760;2023-04-25T18:32:38;99817.81;;;10.57;54.43
30021;BME280;16861;52.294;7.760;2023-04-25T18:35:05;99827.69;;;10.53;54.57
30021;BME280;16861;52.294;7.760;2023-04-25T18:37:32;99827.00;;;10.50;54.54
30021;BME280;16861;52.294;7.760;2023-04-25T18:39:59;99835.06;;;10.47;54.53
30021;BME280;16861;52.294;7.760;2023-04-25T18:42:32;99829.06;;;10.43;54.95
30021;BME280;16861;52.294;7.760;2023-04-25T18:44:58;99830.09;;;10.40;55.03
30021;BME280;16861;52.294;7.760;2023-04-25T18:47:25;99832.91;;;10.37;54.83
30021;BME280;16861;52.294;7.760;2023-04-25T18:49:52;99840.09;;;10.34;55.09
30021;BME280;16861;52.294;7.760;2023-04-25T18:52:18;99841.19;;;10.29;55.04
30021;BME280;16861;52.294;7.760;2023-04-25T18:54:45;99844.03;;;10.26;55.09
30021;BME280;16861;52.294;7.760;2023-04-25T18:57:11;99846.81;;;10.23;55.28
30021;BME280;16861;52.294;7.760;2023-04-25T18:59:41;99847.91;;;10.19;55.03
30021;BME280;16861;52.294;7.760;2023-04-25T19:02:10;99845.50;;;10.14;55.11
30021;BME280;16861;52.294;7.760;2023-04-25T19:04:37;99851.03;;;10.10;55.49
30021;BME280;16861;52.294;7.760;2023-04-25T19:07:04;99854.84;;;10.04;55.18
30021;BME280;16861;52.294;7.760;2023-04-25T19:09:30;99861.19;;;10.00;55.58
30021;BME280;16861;52.294;7.760;2023-04-25T19:11:57;99867.53;;;9.96;55.33
30021;BME280;16861;52.294;7.760;2023-04-25T19:14:23;99866.78;;;9.94;55.48
30021;BME280;16861;52.294;7.760;2023-04-25T19:16:51;99873.06;;;9.91;55.40
30021;BME280;16861;52.294;7.760;2023-04-25T19:19:18;99874.22;;;9.85;55.71
30021;BME280;16861;52.294;7.760;2023-04-25T19:21:44;99870.06;;;9.81;55.67
30021;BME280;16861;52.294;7.760;2023-04-25T19:24:11;99874.59;;;9.77;55.82
30021;BME280;16861;52.294;7.760;2023-04-25T19:26:38;99872.31;;;9.71;55.67
30021;BME280;16861;52.294;7.760;2023-04-25T19:29:10;99877.97;;;9.63;55.55
30021;BME280;16861;52.294;7.760;2023-04-25T19:31:38;99870.22;;;9.60;56.03
30021;BME280;16861;52.294;7.760;2023-04-25T19:34:06;99875.72;;;9.56;56.04
30021;BME280;16861;52.294;7.760;2023-04-25T19:36:33;99882.22;;;9.48;56.08
30021;BME280;16861;52.294;7.760;2023-04-25T19:41:30;99877.50;;;9.37;56.28
30021;BME280;16861;52.294;7.760;2023-04-25T19:43:58;99881.22;;;9.33;56.46
30021;BME280;16861;52.294;7.760;2023-04-25T19:46:27;99882.22;;;9.31;56.44
30021;BME280;16861;52.294;7.760;2023-04-25T19:48:54;99884.06;;;9.29;56.74
30021;BME280;16861;52.294;7.760;2023-04-25T19:51:20;99878.97;;;9.25;56.76
30021;BME280;16861;52.294;7.760;2023-04-25T19:53:47;99877.25;;;9.24;56.64
30021;BME280;16861;52.294;7.760;2023-04-25T19:56:14;99880.06;;;9.21;56.86
30021;BME280;16861;52.294;7.760;2023-04-25T19:58:40;99883.69;;;9.19;57.04
30021;BME280;16861;52.294;7.760;2023-04-25T20:01:08;99881.97;;;9.18;57.01
30021;BME280;16861;52.294;7.760;2023-04-25T20:03:35;99884.66;;;9.16;56.79
30021;BME280;16861;52.294;7.760;2023-04-25T20:06:02;99895.25;;;9.15;56.90
30021;BME280;16861;52.294;7.760;2023-04-25T20:08:29;99886.59;;;9.12;57.11
30021;BME280;16861;52.294;7.760;2023-04-25T20:10:55;99890.16;;;9.11;56.79
30021;BME280;16861;52.294;7.760;2023-04-25T20:13:22;99891.16;;;9.09;57.15
30021;BME280;16861;52.294;7.760;2023-04-25T20:15:48;99895.53;;;9.08;57.07
30021;BME280;16861;52.294;7.760;2023-04-25T20:18:15;99900.03;;;9.06;57.26
30021;BME280;16861;52.294;7.760;2023-04-25T20:20:42;99893.06;;;9.05;57.33
30021;BME280;16861;52.294;7.760;2023-04-25T20:23:08;99902.72;;;9.05;57.30
30021;BME280;16861;52.294;7.760;2023-04-25T20:25:35;99904.50;;;9.04;56.98
30021;BME280;16861;52.294;7.760;2023-04-25T20:28:01;99902.78;;;9.03;57.01
30021;BME280;16861;52.294;7.760;2023-04-25T20:30:28;99909.06;;;9.01;56.92
30021;BME280;16861;52.294;7.760;2023-04-25T20:32:55;99908.25;;;8.98;57.09
30021;BME280;16861;52.294;7.760;2023-04-25T20:35:22;99910.13;;;8.96;57.07
30021;BME280;16861;52.294;7.760;2023-04-25T20:37:48;99907.69;;;8.92;57.09
30021;BME280;16861;52.294;7.760;2023-04-25T20:40:16;99913.94;;;8.89;57.32
30021;BME280;16861;52.294;7.760;2023-04-25T20:42:42;99915.88;;;8.85;57.17
30021;BME280;16861;52.294;7.760;2023-04-25T20:45:09;99914.25;;;8.83;57.52
30021;BME280;16861;52.294;7.760;2023-04-25T20:47:39;99919.63;;;8.80;57.57
30021;BME280;16861;52.294;7.760;2023-04-25T20:50:07;99910.13;;;8.77;57.30
30021;BME280;16861;52.294;7.760;2023-04-25T20:52:35;99906.88;;;8.72;57.22
30021;BME280;16861;52.294;7.760;2023-04-25T20:55:03;99914.91;;;8.69;57.44
30021;BME280;16861;52.294;7.760;2023-04-25T20:57:30;99915.03;;;8.66;57.31
30021;BME280;16861;52.294;7.760;2023-04-25T20:59:57;99911.63;;;8.64;57.65
30021;BME280;16861;52.294;7.760;2023-04-25T21:02:24;99915.31;;;8.59;57.40
30021;BME280;16861;52.294;7.760;2023-04-25T21:04:51;99915.47;;;8.56;57.43
30021;BME280;16861;52.294;7.760;2023-04-25T21:07:17;99919.06;;;8.54;57.65
30021;BME280;16861;52.294;7.760;2023-04-25T21:09:44;99922.66;;;8.51;57.47
30021;BME280;16861;52.294;7.760;2023-04-25T21:12:11;99917.56;;;8.48;57.57
30021;BME280;16861;52.294;7.760;2023-04-25T21:14:37;99915.91;;;8.45;57.44
30021;BME280;16861;52.294;7.760;2023-04-25T21:17:04;99919.53;;;8.43;57.54
30021;BME280;16861;52.294;7.760;2023-04-25T21:19:31;99917.16;;;8.38;57.68
30021;BME280;16861;52.294;7.760;2023-04-25T21:21:58;99917.28;;;8.35;57.93
30021;BME280;16861;52.294;7.760;2023-04-25T21:24:24;99919.09;;;8.33;57.75
30021;BME280;16861;52.294;7.760;2023-04-25T21:26:52;99920.03;;;8.32;57.95
30021;BME280;16861;52.294;7.760;2023-04-25T21:29:19;99929.81;;;8.28;57.63
30021;BME280;16861;52.294;7.760;2023-04-25T21:31:45;99925.56;;;8.26;57.81
30021;BME280;16861;52.294;7.760;2023-04-25T21:34:12;99920.44;;;8.23;57.77
30021;BME280;16861;52.294;7.760;2023-04-25T21:36:38;99921.44;;;8.20;58.00
30021;BME280;16861;52.294;7.760;2023-04-25T21:39:06;99925.97;;;8.16;57.51
30021;BME280;16861;52.294;7.760;2023-04-25T21:41:33;99922.63;;;8.13;57.83
30021;BME280;16861;52.294;7.760;2023-04-25T21:44:00;99926.22;;;8.10;57.72
30021;BME280;16861;52.294;7.760;2023-04-25T21:46:26;99927.22;;;8.07;57.68
30021;BME280;16861;52.294;7.760;2023-04-25T21:48:53;99922.09;;;8.04;57.98
30021;BME280;16861;52.294;7.760;2023-04-25T21:51:20;99925.72;;;8.02;57.82
30021;BME280;16861;52.294;7.760;2023-04-25T21:53:47;99924.94;;;8.00;57.97
30021;BME280;16861;52.294;7.760;2023-04-25T21:56:13;99926.75;;;7.98;57.99
30021;BME280;16861;52.294;7.760;2023-04-25T21:58:40;99930.31;;;7.97;57.97
30021;BME280;16861;52.294;7.760;2023-04-25T22:01:07;99923.50;;;7.92;57.90
30021;BME280;16861;52.294;7.760;2023-04-25T22:03:33;99927.97;;;7.90;58.06
30021;BME280;16861;52.294;7.760;2023-04-25T22:06:00;99926.28;;;7.88;58.07
30021;BME280;16861;52.294;7.760;2023-04-25T22:08:29;99925.59;;;7.84;58.14
30021;BME280;16861;52.294;7.760;2023-04-25T22:10:55;99926.56;;;7.81;58.28
30021;BME280;16861;52.294;7.760;2023-04-25T22:13:22;99926.63;;;7.80;58.22
30021;BME280;16861;52.294;7.760;2023-04-25T22:15:49;99927.56;;;7.79;58.50
30021;BME280;16861;52.294;7.760;2023-04-25T22:18:16;99929.38;;;7.77;58.60
30021;BME280;16861;52.294;7.760;2023-04-25T22:20:43;99936.47;;;7.75;58.46
30021;BME280;16861;52.294;7.760;2023-04-25T22:23:10;99930.50;;;7.71;58.63
30021;BME280;16861;52.294;7.760;2023-04-25T22:25:37;99935.81;;;7.69;58.80
30021;BME280;16861;52.294;7.760;2023-04-25T22:28:04;99941.97;;;7.68;58.75
30021;BME280;16861;52.294;7.760;2023-04-25T22:30:31;99940.25;;;7.67;58.90
30021;BME280;16861;52.294;7.760;2023-04-25T22:32:57;99948.16;;;7.66;58.61
30021;BME280;16861;52.294;7.760;2023-04-25T22:35:24;99946.47;;;7.65;58.60
30021;BME280;16861;52.294;7.760;2023-04-25T22:37:51;99943.09;;;7.63;59.23
30021;BME280;16861;52.294;7.760;2023-04-25T22:40:18;99945.75;;;7.61;59.12
30021;BME280;16861;52.294;7.760;2023-04-25T22:42:45;99946.69;;;7.60;59.11
30021;BME280;16861;52.294;7.760;2023-04-25T22:45:12;99941.50;;;7.59;58.88
30021;BME280;16861;52.294;7.760;2023-04-25T22:47:39;99945.06;;;7.58;59.07
30021;BME280;16861;52.294;7.760;2023-04-25T22:50:07;99953.84;;;7.55;59.37
30021;BME280;16861;52.294;7.760;2023-04-25T22:52:38;99954.78;;;7.54;58.91
30021;BME280;16861;52.294;7.760;2023-04-25T22:55:05;99951.31;;;7.53;59.37
30021;BME280;16861;52.294;7.760;2023-04-25T22:57:35;99947.97;;;7.50;59.07
30021;BME280;16861;52.294;7.760;2023-04-25T23:00:06;99954.13;;;7.49;59.07
30021;BME280;16861;52.294;7.760;2023-04-25T23:02:42;99955.03;;;7.48;59.35